Aviation Digital Data Service (ADDS)

Output produced by METARs form (0712 UTC 24 March 2019)
found at http://www.aviationweather.gov/metar/data/
 
RJSK 240700Z 28016KT 9999 -SHSN FEW015 SCT040 02/M06 Q1016
TAF RJSK 240508Z 2406/2512 30015KT 9999 FEW020 BKN040 
     TEMPO 2406/2408 30015G25KT 
     BECMG 2412/2414 14004KT 
     TEMPO 2418/2500 1500 -SHSNRA BR FEW003 BKN005 BKN008 
     BECMG 2421/2500 26015KT 
     TEMPO 2503/2506 26020G30KT 4000 SHRA BR
       
RJKA 240700Z 31008KT 9999 FEW040 SCT050 BKN100 17/07 Q1020
RJSA 240700Z 23015KT 4500 -SHSN FEW003 SCT010 BKN020 M02/M06 Q1013
TAF RJSA 240510Z 2406/2512 27015KT 9999 -SHSN FEW010 BKN020 BKN030 
     TEMPO 2406/2408 27015G25KT 3000 -SHSN 
     TEMPO 2408/2412 3000 -SHSN 
     BECMG 2410/2412 21010KT 
     TEMPO 2500/2506 23020G30KT
       
RJEC 240700Z 28012KT 9999 VCSH FEW010 SCT030 M03/M09 Q1007
TAF RJEC 240508Z 2406/2512 29018KT 9999 FEW008 BKN020 
     TEMPO 2406/2410 3000 -SHSN 
     BECMG 2409/2411 17013KT 
     TEMPO 2414/2500 3000 -SHSN 
     TEMPO 2500/2506 19020G30KT 4000 -SHRA BR FEW005 BKN008 
     TEMPO 2509/2512 3000 -SHSN
       
RJFE 240700Z VRB04KT 9999 FEW040 11/01 Q1020
RJFF 240700Z 32012KT 270V340 9999 FEW045 12/00 Q1019 NOSIG RMK 1CU045 A3011
TAF RJFF 240505Z 2406/2512 30010KT 9999 FEW030 
     BECMG 2410/2412 15005KT
       
RJSF 240700Z 32015KT 9999 FEW045 SCT060 04/M08 Q1014
TAF RJSF 240512Z 2406/2512 32013KT 9999 FEW030 SCT040 
     TEMPO 2406/2408 32015G25KT 
     BECMG 2413/2415 15004KT 
     BECMG 2500/2503 21010KT
       
ROTM 240656Z COR 06006KT 9999 BKN045 BKN100 21/09 A3012 RMK SLP187 T0210086
TAF ROTM 2403/2503 02009KT 9999 FEW040 BKN110 QNH3006INS 
     FM241300 05007KT 9999 FEW060 QNH2998INS 
     BECMG 2423/2501 18009KT SCT055 QNH3006INS T21/2404Z T16/2415Z
       
RJNG 240520Z 31016G26KT 9999 FEW030 SCT050 12/M05 Q1016 RMK 1CU030 3SC050 A3002
RJSH 240226Z 29021G41KT 260V320 9999 FEW012 SCT030 BKN040 02/M09 Q1010 RMK 1CU012 3CU030 5CU040 A2985
RJCH 240700Z 28012KT 9999 FEW020 SCT030 BKN050 M00/M08 Q1012
TAF RJCH 240512Z 2406/2512 29018KT 9999 FEW015 BKN025 
     TEMPO 2406/2409 29020G30KT 3000 -SHSN 
     BECMG 2416/2418 25008KT 
     BECMG 2421/2500 24018KT 
     TEMPO 2500/2506 24023G33KT
       
RJSI 240700Z 31011KT 260V350 9999 VCSH FEW020 SCT040 01/M08 Q1014
RJOA 240700Z 20007KT 160V250 9999 SCT035 09/M01 Q1017
TAF RJOA 240509Z 2406/2512 32005KT 9999 FEW020
       
RJAH 240700Z 30008KT 260V350 9999 FEW030 13/M13 Q1013
TAF RJAH 240506Z 2406/2512 30010KT 9999 FEW030 
     BECMG 2407/2409 02006KT 
     BECMG 2500/2503 20010KT
       
ROIG 240700Z 06012KT 9999 BKN030 BKN040 20/14 Q1018
TAF ROIG 240519Z 2406/2512 07012KT 9999 FEW025 SCT040 
     BECMG 2421/2500 14012KT 
     TEMPO 2509/2512 3000 SHRA FEW008 BKN015 FEW020CB 
     BECMG 2509/2512 24010KT
       
RJOI 240655Z 15013KT 9999 FEW030 SCT040 12/02 A3007 RMK SLP183 T01170022
TAF RJOI 2405/2505 18008KT 9999 SCT020 BKN080 620353 QNH3007INS 
     TEMPO 2405/2410 20010G18KT 
     FM241100 25007KT 9999 FEW030 600000 QNH3006INS 
     BECMG 2417/2419 25008KT 9999 FEW025 SCT200 QNH3006INS 
     FM240300 27008KT 9999 FEW025 SCT120 QNH3005INS T12/2406Z T03/2421Z
       
RJOW 240700Z 28014KT 9999 FEW040 11/02 Q1018
RJAW 240700Z 04017KT 9999 FEW010 BKN020 20/14 Q1015 RMK 1CU010 7CU020 A2998
RJOC 240700Z 26012KT 9999 FEW035 11/02 Q1017
TAF RJOC 240508Z 2406/2512 26010KT 9999 FEW030 
     BECMG 2410/2412 17006KT 
     BECMG 2500/2503 25016KT 
     TEMPO 2503/2509 25017G28KT 
     BECMG 2509/2512 17006KT
       
RODN 240656Z 02009KT 10SM BKN047 20/08 A3011 RMK AO2A SLPNO ALSTG ESTMD $
TAF RODN 240000Z 2400/2506 02012KT 9999 SCT045 QNH3012INS 
     BECMG 2406/2408 VRB06KT 9999 BKN045 QNH3008INS 
     BECMG 2501/2502 16012KT 9999 BKN035 QNH3010INS TX21/2406Z TN14/2421Z
       
RJFK 240700Z 21010KT 180V240 9999 FEW025 15/01 Q1018 RMK 1CU025 A3007 VOLCANIC ASH CLOUD SE-S
TAF RJFK 240509Z 2406/2512 20009KT 9999 FEW030 
     BECMG 2406/2408 28011KT 
     BECMG 2411/2413 34005KT
       
RJBB 240700Z 21004KT 180V270 9999 FEW035 10/M00 Q1018 NOSIG
TAF RJBB 240514Z 2406/2512 24005KT 9999 FEW030
       
RJKI 240700Z AUTO 34006KT 310V020 9999 FEW040 SCT210 17/08 Q1020
RORK 240700Z AUTO 06010KT 9999 FEW042 SCT050 19/08 Q1019
RJFR 240700Z 32020KT 9999 FEW040 12/01 Q1018
TAF RJFR 240507Z 2406/2512 31015KT 9999 FEW040 
     BECMG 2411/2413 23005KT
       
RJOK 240700Z 22011KT 9999 FEW035 13/02 Q1018
TAF RJOK 240506Z 2406/2512 21008KT 9999 FEW035 
     BECMG 2408/2410 35009KT 
     BECMG 2500/2503 18005KT 
     BECMG 2509/2512 36005KT
       
RJNK 240700Z VRB04KT 9999 FEW030 09/M06 Q1019
TAF RJNK 240507Z 2406/2512 33006KT 9999 FEW020 SCT050 
     BECMG 2407/2409 18006KT 
     BECMG 2503/2506 24010KT
       
RJFT 240700Z 22008KT 180V250 CAVOK 13/M06 Q1019
TAF RJFT 240510Z 2406/2512 24007KT 9999 FEW030 
     BECMG 2413/2415 05004KT 
     BECMG 2500/2503 24005KT
       
RJCK 240700Z 23003KT 170V330 9999 FEW020 SCT030 00/M04 Q1005
TAF RJCK 240510Z 2406/2512 11004KT 9999 FEW015 SCT030 
     BECMG 2406/2408 29008KT 
     TEMPO 2406/2409 2000 -SHSN FEW005 BKN008 
     BECMG 2411/2413 22005KT 
     BECMG 2421/2500 20018KT 
     TEMPO 2500/2506 20020G30KT
       
RJAF 240700Z 34011KT 310V020 9999 FEW070 07/M11 Q1013
RJOM 240700Z 24008KT 9999 FEW030 12/02 Q1019
TAF RJOM 240511Z 2406/2512 23008KT 9999 FEW030 
     BECMG 2416/2418 12006KT 
     BECMG 2500/2503 24008KT
       
RJCM 240700Z 33005KT 280V010 9999 -SHSN FEW015 SCT030 BKN040 M01/M06 Q1005
TAF RJCM 240513Z 2406/2512 18006KT 9999 FEW008 BKN015 
     TEMPO 2406/2412 2000 -SHSN FEW005 BKN008 
     BECMG 2407/2409 31010KT 
     BECMG 2411/2413 19005KT 
     BECMG 2421/2500 21015KT 
     TEMPO 2500/2506 21018G28KT
       
RJOH 240700Z 08006KT 040V110 9999 FEW020 SCT030 BKN060 10/M01 Q1018
TAF RJOH 240512Z 2406/2512 04005KT 9999 FEW030 
     BECMG 2406/2408 26010KT 
     BECMG 2411/2413 18007KT 
     BECMG 2500/2503 26015KT 
     TEMPO 2503/2509 26016G27KT
       
ROMD 240700Z AUTO 05008KT 010V110 9999 FEW043 SCT048 19/09 Q1018
RJSM 240700Z 27015KT 9999 -SHSN FEW015 BKN030 M00/M08 Q1013
ROMY 240700Z 06008KT 9999 FEW035 BKN048 19/12 Q1018
RJFM 240700Z 15016KT 9999 FEW035 15/06 Q1018
TAF RJFM 240507Z 2406/2512 15015KT 9999 FEW030 
     BECMG 2408/2410 27013KT 
     BECMG 2500/2503 09005KT 
     BECMG 2506/2509 25008KT
       
RJEB 240700Z 32013KT 0900 R32/0600V1300U SHSN VV003 M03/M04 Q1006
RJFU 240700Z 24010KT 9999 FEW050 13/02 Q1019
TAF RJFU 240506Z 2406/2512 30008KT 9999 FEW040 
     BECMG 2416/2418 14010KT 
     BECMG 2503/2506 24008KT
       
ROAH 240700Z 03010KT 360V070 9999 FEW035 BKN050 19/08 Q1019 RMK 1CU035 6SC050 A3009
TAF ROAH 240509Z 2406/2512 06008KT 9999 FEW030 SCT040 
     BECMG 2421/2423 16010KT 
     TEMPO 2509/2512 3000 SHRA FEW008 BKN015 FEW020CB
       
RJCN 240700Z 18004KT 150V220 9999 FEW006 SCT009 BKN012 M02/M05 Q1005
RJBD 240700Z 33011KT 290V360 9999 FEW035 13/M02 Q1017
RJCC 240700Z 31011KT 9999 -SHSN FEW015 SCT030 BKN050 M01/M09 Q1010 RMK 1ST015 3CU030 6CU050 A2985
TAF RJCC 240505Z 2406/2512 33015KT 9999 FEW008 BKN020 
     TEMPO 2406/2408 3000 -SHSN 
     BECMG 2409/2411 16007KT 
     TEMPO 2412/2415 3000 -SHSN 
     BECMG 2421/2500 18018KT 
     BECMG 2509/2512 18005KT
       
RJAA 240700Z VRB05KT CAVOK 13/M08 Q1014 BECMG 32010KT RMK A2994
TAF RJAA 240505Z 2406/2512 36008KT 9999 FEW030 
     BECMG 2500/2503 22013KT 
     TEMPO 2503/2509 23017G28KT
       
RJSN 240700Z 30009KT 9999 FEW030 SCT040 07/M06 Q1018
TAF RJSN 240506Z 2406/2512 28010KT 9999 FEW030 SCT050 
     BECMG 2412/2414 18010KT 
     BECMG 2421/2500 24014KT 
     BECMG 2509/2512 18006KT
       
RJCB 240700Z 33018KT 9999 FEW020 SCT040 M00/M07 Q1006
TAF RJCB 240507Z 2406/2512 32018KT 9999 FEW030 BKN050 
     TEMPO 2406/2409 32020G30KT 
     BECMG 2411/2413 16005KT
       
RJSR 240700Z 28016KT 9999 -SHSN FEW015 BKN040 M00/M07 Q1015
RJFO 240700Z 04008KT 9999 FEW030 12/01 Q1018
TAF RJFO 240506Z 2406/2512 04012KT 9999 FEW030 
     BECMG 2406/2408 34007KT 
     BECMG 2414/2416 26005KT
       
RJOB 240700Z 22009KT 190V260 9999 FEW030 BKN050 10/01 Q1017
TAF RJOB 240509Z 2406/2512 22008KT 9999 FEW025 SCT040
       
RJOO 240700Z 21007KT 180V250 9999 FEW030 BKN070 10/01 Q1018 RMK 1CU030 5AC070 A3006
TAF RJOO 240512Z 2406/2512 24005KT 9999 FEW025 SCT045 
     BECMG 2421/2500 22008KT 
     BECMG 2509/2512 32005KT
       
RJTO 240700Z 21010KT 180V240 9999 FEW040 14/01 Q1013
RJFS 240700Z 18011KT 9999 FEW035 12/02 Q1019
TAF RJFS 240507Z 2406/2512 18009KT 9999 FEW030 
     BECMG 2407/2409 28010KT 
     BECMG 2415/2417 35004KT 
     BECMG 2500/2503 20010KT
       
RJCO 240700Z 30012KT 9999 FEW010 BKN040 BKN060 M01/M08 Q1011
RJSS 240700Z 31019KT 9999 FEW030 07/M11 Q1013
TAF RJSS 240505Z 2406/2512 30015KT 9999 FEW030 
     TEMPO 2406/2408 30020G30KT 
     BECMG 2409/2411 24004KT
       
RJTL 240144Z 33010G20KT 260V030 9999 FEW030 12/M06 Q1014 RMK 1CU030 A2997
RORS 240700Z 07010KT 9999 FEW035 BKN042 20/12 Q1018
RJNY 240529Z 26019G29KT 9999 FEW030 16/M06 Q1011 RMK 1CU030 A2988
RJSY 240700Z 28017G27KT 9999 FEW020 SCT040 04/M07 Q1017
RJBT 240700Z 35005KT 9999 -SHRA FEW025 SCT035 08/08 Q1017
RJOT 240700Z 29009KT 240V310 9999 FEW025 12/M03 Q1017
TAF RJOT 240511Z 2406/2512 26009KT 9999 FEW030 
     BECMG 2509/2512 15005KT
       
RJFG 240700Z 30011KT 270V330 CAVOK 12/01 Q1019
RJOS 240700Z 02011KT 9999 FEW030 13/M00 Q1017
RJTT 240700Z 19010KT 9999 FEW040 14/M07 Q1014 NOSIG RMK 1CU040 A2994
TAF RJTT 240505Z 2406/2512 17010KT 9999 FEW030 SCT060 
     BECMG 2409/2411 01008KT 
     BECMG 2500/2503 17008KT 
     BECMG 2503/2506 20018KT 
     TEMPO 2503/2509 20020G30KT
       
RJOR 240700Z 02005KT 9999 FEW030 09/03 Q1018
RJNT 240700Z 20004KT 120V250 9999 FEW040 BKN050 08/M03 Q1018
TAF RJNT 240505Z 2406/2512 20005KT 9999 FEW030 
     BECMG 2500/2503 26010KT 
     BECMG 2509/2512 20004KT
       
RJDT 240700Z 26010KT 200V300 CAVOK 09/M01 Q1019
RJCW 240700Z 27015KT 9999 FEW030 BKN040 M02/M12 Q1006
RJSC 240700Z 28012G25KT 240V310 9999 FEW040 SCT050 04/M07 Q1015
RJDC 240700Z 28011KT 250V320 9999 FEW025 13/M01 Q1018
RJOY 240700Z 25006KT 200V310 9999 FEW030 SCT060 12/00 Q1018
RJTY 240556Z AUTO 05011KT 10SM FEW085 13/M08 A2996 RMK AO2 SLP154 T01331080 10137 20072 55008 FZRANO $
TAF RJTY 240500Z 2405/2511 12007KT 9999 FEW050 QNH2995INS 
     TEMPO 2405/2408 12012KT 
     BECMG 2413/2414 06006KT 9999 FEW050 QNH3006INS TX13/2405Z TN00/2500Z
       
ROYN 240700Z AUTO 07010KT 7000 -RA FEW024 BKN029 OVC037 19/16 Q1018
RORY 240700Z AUTO 01007KT 330V040 9999 FEW035 SCT044 BKN110 18/09 Q1020